sensor_id;sensor_type;location;lat;lon;timestamp;pressure;altitude;pressure_sealevel;temperature;humidity
9462;BME280;4769;42.660;23.262;2023-05-16T00:00:22;93693.53;;;15.32;100.00
9462;BME280;4769;42.660;23.262;2023-05-16T00:02:50;93687.41;;;15.32;100.00
9462;BME280;4769;42.660;23.262;2023-05-16T00:05:16;93685.03;;;15.35;100.00
9462;BME280;4769;42.660;23.262;2023-05-16T00:07:43;93678.94;;;15.30;100.00
9462;BME280;4769;42.660;23.262;2023-05-16T00:10:10;93670.91;;;15.40;100.00
9462;BME280;4769;42.660;23.262;2023-05-16T00:12:36;93678.34;;;15.43;100.00
9462;BME280;4769;42.660;23.262;2023-05-16T00:15:02;93681.25;;;15.41;100.00
9462;BME280;4769;42.660;23.262;2023-05-16T00:17:28;93675.69;;;15.43;100.00
9462;BME280;4769;42.660;23.262;2023-05-16T00:19:56;93669.06;;;15.40;100.00
9462;BME280;4769;42.660;23.262;2023-05-16T00:22:22;93678.56;;;15.46;100.00
9462;BME280;4769;42.660;23.262;2023-05-16T00:24:47;93662.63;;;15.46;100.00
9462;BME280;4769;42.660;23.262;2023-05-16T00:27:13;93666.31;;;15.50;100.00
9462;BME280;4769;42.660;23.262;2023-05-16T00:29:39;93656.81;;;15.44;100.00
9462;BME280;4769;42.660;23.262;2023-05-16T00:32:05;93665.56;;;15.45;100.00
9462;BME280;4769;42.660;23.262;2023-05-16T00:34:31;93663.22;;;15.38;100.00
9462;BME280;4769;42.660;23.262;2023-05-16T00:36:59;93657.41;;;15.36;100.00
9462;BME280;4769;42.660;23.262;2023-05-16T00:39:25;93647.59;;;15.37;100.00
9462;BME280;4769;42.660;23.262;2023-05-16T00:41:51;93652.38;;;15.35;100.00
9462;BME280;4769;42.660;23.262;2023-05-16T00:44:17;93647.41;;;15.23;100.00
9462;BME280;4769;42.660;23.262;2023-05-16T00:46:42;93640.72;;;15.26;100.00
9462;BME280;4769;42.660;23.262;2023-05-16T00:49:09;93635.63;;;15.34;100.00
9462;BME280;4769;42.660;23.262;2023-05-16T00:51:35;93628.97;;;15.32;100.00
9462;BME280;4769;42.660;23.262;2023-05-16T00:54:05;93627.19;;;15.27;100.00
9462;BME280;4769;42.660;23.262;2023-05-16T00:56:32;93627.44;;;15.26;100.00
9462;BME280;4769;42.660;23.262;2023-05-16T00:58:58;93634.59;;;15.30;100.00
9462;BME280;4769;42.660;23.262;2023-05-16T01:01:24;93628.47;;;15.30;100.00
9462;BME280;4769;42.660;23.262;2023-05-16T01:03:50;93620.28;;;15.26;100.00
9462;BME280;4769;42.660;23.262;2023-05-16T01:06:16;93620.78;;;15.28;100.00
9462;BME280;4769;42.660;23.262;2023-05-16T01:08:42;93630.38;;;15.24;100.00
9462;BME280;4769;42.660;23.262;2023-05-16T01:11:15;93624.03;;;15.20;100.00
9462;BME280;4769;42.660;23.262;2023-05-16T01:13:55;93628.31;;;15.21;100.00
9462;BME280;4769;42.660;23.262;2023-05-16T01:16:28;93620.56;;;15.25;100.00
9462;BME280;4769;42.660;23.262;2023-05-16T01:19:01;93626.16;;;15.23;100.00
9462;BME280;4769;42.660;23.262;2023-05-16T01:21:41;93626.41;;;15.22;100.00
9462;BME280;4769;42.660;23.262;2023-05-16T01:24:13;93619.81;;;14.91;100.00
9462;BME280;4769;42.660;23.262;2023-05-16T01:26:42;93620.53;;;14.96;100.00
9462;BME280;4769;42.660;23.262;2023-05-16T01:29:08;93605.47;;;14.92;100.00
9462;BME280;4769;42.660;23.262;2023-05-16T01:31:34;93604.06;;;14.99;100.00
9462;BME280;4769;42.660;23.262;2023-05-16T01:33:59;93615.94;;;15.07;100.00
9462;BME280;4769;42.660;23.262;2023-05-16T01:36:31;93607.44;;;15.10;100.00
9462;BME280;4769;42.660;23.262;2023-05-16T01:39:05;93590.97;;;15.08;100.00
9462;BME280;4769;42.660;23.262;2023-05-16T01:41:42;93588.59;;;15.06;100.00
9462;BME280;4769;42.660;23.262;2023-05-16T01:44:18;93590.19;;;15.07;100.00
9462;BME280;4769;42.660;23.262;2023-05-16T01:46:46;93586.97;;;15.10;100.00
9462;BME280;4769;42.660;23.262;2023-05-16T01:49:16;93593.88;;;15.11;100.00
9462;BME280;4769;42.660;23.262;2023-05-16T01:51:49;93594.38;;;15.13;100.00
9462;BME280;4769;42.660;23.262;2023-05-16T01:54:17;93596.00;;;15.09;100.00
9462;BME280;4769;42.660;23.262;2023-05-16T01:56:50;93591.34;;;14.96;100.00
9462;BME280;4769;42.660;23.262;2023-05-16T01:59:18;93579.75;;;14.87;100.00
9462;BME280;4769;42.660;23.262;2023-05-16T02:01:44;93574.38;;;14.92;100.00
9462;BME280;4769;42.660;23.262;2023-05-16T02:04:10;93594.25;;;15.00;100.00
9462;BME280;4769;42.660;23.262;2023-05-16T02:06:35;93585.81;;;14.93;100.00
9462;BME280;4769;42.660;23.262;2023-05-16T02:09:01;93584.28;;;14.87;100.00
9462;BME280;4769;42.660;23.262;2023-05-16T02:11:27;93585.72;;;14.74;100.00
9462;BME280;4769;42.660;23.262;2023-05-16T02:13:55;93582.25;;;14.74;100.00
9462;BME280;4769;42.660;23.262;2023-05-16T02:16:21;93568.41;;;14.82;100.00
9462;BME280;4769;42.660;23.262;2023-05-16T02:18:47;93580.44;;;14.98;100.00
9462;BME280;4769;42.660;23.262;2023-05-16T02:21:12;93566.78;;;14.86;100.00
9462;BME280;4769;42.660;23.262;2023-05-16T02:23:38;93581.84;;;14.90;100.00
9462;BME280;4769;42.660;23.262;2023-05-16T02:26:04;93578.22;;;14.81;100.00
9462;BME280;4769;42.660;23.262;2023-05-16T02:28:30;93570.78;;;14.83;100.00
9462;BME280;4769;42.660;23.262;2023-05-16T02:30:59;93575.16;;;14.98;100.00
9462;BME280;4769;42.660;23.262;2023-05-16T02:33:25;93579.69;;;14.97;100.00
9462;BME280;4769;42.660;23.262;2023-05-16T02:35:51;93587.34;;;14.99;100.00
9462;BME280;4769;42.660;23.262;2023-05-16T02:38:17;93585.06;;;14.87;100.00
9462;BME280;4769;42.660;23.262;2023-05-16T02:40:42;93588.88;;;14.76;100.00
9462;BME280;4769;42.660;23.262;2023-05-16T02:43:08;93576.91;;;14.45;100.00
9462;BME280;4769;42.660;23.262;2023-05-16T02:45:34;93582.66;;;14.57;100.00
9462;BME280;4769;42.660;23.262;2023-05-16T02:48:03;93573.13;;;14.56;100.00
9462;BME280;4769;42.660;23.262;2023-05-16T02:50:28;93577.78;;;14.69;100.00
9462;BME280;4769;42.660;23.262;2023-05-16T02:52:54;93568.44;;;14.77;100.00
9462;BME280;4769;42.660;23.262;2023-05-16T02:55:20;93570.97;;;14.92;100.00
9462;BME280;4769;42.660;23.262;2023-05-16T02:57:45;93578.44;;;14.85;100.00
9462;BME280;4769;42.660;23.262;2023-05-16T03:00:12;93579.19;;;14.90;100.00
9462;BME280;4769;42.660;23.262;2023-05-16T03:02:38;93574.38;;;14.92;100.00
9462;BME280;4769;42.660;23.262;2023-05-16T03:05:08;93566.47;;;14.87;100.00
9462;BME280;4769;42.660;23.262;2023-05-16T03:07:33;93569.34;;;14.96;100.00
9462;BME280;4769;42.660;23.262;2023-05-16T03:09:59;93566.41;;;14.97;100.00
9462;BME280;4769;42.660;23.262;2023-05-16T03:12:25;93566.59;;;15.06;100.00
9462;BME280;4769;42.660;23.262;2023-05-16T03:14:51;93563.69;;;15.02;100.00
9462;BME280;4769;42.660;23.262;2023-05-16T03:17:16;93569.72;;;15.08;100.00
9462;BME280;4769;42.660;23.262;2023-05-16T03:19:42;93563.66;;;15.07;100.00
9462;BME280;4769;42.660;23.262;2023-05-16T03:22:10;93567.88;;;15.08;100.00
9462;BME280;4769;42.660;23.262;2023-05-16T03:24:36;93571.09;;;15.05;100.00
9462;BME280;4769;42.660;23.262;2023-05-16T03:27:02;93576.41;;;15.05;100.00
9462;BME280;4769;42.660;23.262;2023-05-16T03:29:28;93569.72;;;15.08;100.00
9462;BME280;4769;42.660;23.262;2023-05-16T03:31:54;93569.47;;;15.09;100.00
9462;BME280;4769;42.660;23.262;2023-05-16T03:34:19;93558.84;;;15.09;100.00
9462;BME280;4769;42.660;23.262;2023-05-16T03:36:46;93555.69;;;15.07;100.00
9462;BME280;4769;42.660;23.262;2023-05-16T03:39:15;93574.22;;;15.12;100.00
9462;BME280;4769;42.660;23.262;2023-05-16T03:41:40;93550.31;;;15.12;100.00
9462;BME280;4769;42.660;23.262;2023-05-16T03:44:06;93557.47;;;15.12;100.00
9462;BME280;4769;42.660;23.262;2023-05-16T03:46:32;93564.94;;;15.10;100.00
9462;BME280;4769;42.660;23.262;2023-05-16T03:48:58;93555.63;;;15.12;100.00
9462;BME280;4769;42.660;23.262;2023-05-16T03:51:24;93556.97;;;15.10;100.00
9462;BME280;4769;42.660;23.262;2023-05-16T03:53:49;93558.28;;;15.12;100.00
9462;BME280;4769;42.660;23.262;2023-05-16T03:56:18;93549.84;;;15.05;100.00
9462;BME280;4769;42.660;23.262;2023-05-16T03:58:43;93555.69;;;15.07;100.00
9462;BME280;4769;42.660;23.262;2023-05-16T04:01:09;93567.59;;;15.10;100.00
9462;BME280;4769;42.660;23.262;2023-05-16T04:03:35;93564.69;;;15.11;100.00
9462;BME280;4769;42.660;23.262;2023-05-16T04:06:00;93555.84;;;15.16;100.00
9462;BME280;4769;42.660;23.262;2023-05-16T04:08:26;93556.88;;;15.20;100.00
9462;BME280;4769;42.660;23.262;2023-05-16T04:10:52;93549.03;;;15.10;100.00
9462;BME280;4769;42.660;23.262;2023-05-16T04:13:20;93570.44;;;15.18;100.00
9462;BME280;4769;42.660;23.262;2023-05-16T04:15:46;93569.94;;;15.16;100.00
9462;BME280;4769;42.660;23.262;2023-05-16T04:18:12;93563.66;;;15.07;100.00
9462;BME280;4769;42.660;23.262;2023-05-16T04:20:38;93572.63;;;15.11;100.00
9462;BME280;4769;42.660;23.262;2023-05-16T04:23:03;93559.38;;;15.06;100.00
9462;BME280;4769;42.660;23.262;2023-05-16T04:25:29;93565.78;;;15.05;100.00
9462;BME280;4769;42.660;23.262;2023-05-16T04:27:55;93560.66;;;15.14;100.00
9462;BME280;4769;42.660;23.262;2023-05-16T04:30:23;93563.75;;;15.21;100.00
9462;BME280;4769;42.660;23.262;2023-05-16T04:32:49;93565.34;;;15.22;100.00
9462;BME280;4769;42.660;23.262;2023-05-16T04:35:15;93555.75;;;15.26;100.00
9462;BME280;4769;42.660;23.262;2023-05-16T04:37:40;93548.31;;;15.23;100.00
9462;BME280;4769;42.660;23.262;2023-05-16T04:40:07;93555.25;;;15.24;100.00
9462;BME280;4769;42.660;23.262;2023-05-16T04:42:33;93554.34;;;15.33;100.00
9462;BME280;4769;42.660;23.262;2023-05-16T04:44:59;93553.53;;;15.38;100.00
9462;BME280;4769;42.660;23.262;2023-05-16T04:47:28;93547.06;;;15.44;100.00
9462;BME280;4769;42.660;23.262;2023-05-16T04:49:53;93545.50;;;15.43;100.00
9462;BME280;4769;42.660;23.262;2023-05-16T04:52:19;93552.16;;;15.40;100.00
9462;BME280;4769;42.660;23.262;2023-05-16T04:54:45;93551.03;;;15.46;100.00
9462;BME280;4769;42.660;23.262;2023-05-16T04:57:10;93541.50;;;15.45;100.00
9462;BME280;4769;42.660;23.262;2023-05-16T04:59:36;93548.47;;;15.60;100.00
9462;BME280;4769;42.660;23.262;2023-05-16T05:02:02;93546.28;;;15.67;100.00
9462;BME280;4769;42.660;23.262;2023-05-16T05:04:30;93548.59;;;15.73;100.00
9462;BME280;4769;42.660;23.262;2023-05-16T05:06:56;93549.66;;;15.72;100.00
9462;BME280;4769;42.660;23.262;2023-05-16T05:09:22;93545.16;;;15.49;100.00
9462;BME280;4769;42.660;23.262;2023-05-16T05:11:47;93559.56;;;15.43;100.00
9462;BME280;4769;42.660;23.262;2023-05-16T05:14:13;93558.25;;;15.41;100.00
9462;BME280;4769;42.660;23.262;2023-05-16T05:16:39;93555.53;;;15.46;100.00
9462;BME280;4769;42.660;23.262;2023-05-16T05:19:05;93559.28;;;15.45;100.00
9462;BME280;4769;42.660;23.262;2023-05-16T05:21:34;93548.59;;;15.50;100.00
9462;BME280;4769;42.660;23.262;2023-05-16T05:23:59;93547.75;;;15.54;100.00
9462;BME280;4769;42.660;23.262;2023-05-16T05:26:25;93545.53;;;15.61;100.00
9462;BME280;4769;42.660;23.262;2023-05-16T05:28:51;93544.91;;;15.69;100.00
9462;BME280;4769;42.660;23.262;2023-05-16T05:31:17;93534.00;;;15.71;100.00
9462;BME280;4769;42.660;23.262;2023-05-16T05:33:42;93532.91;;;15.72;100.00
9462;BME280;4769;42.660;23.262;2023-05-16T05:36:08;93527.38;;;15.68;100.00
9462;BME280;4769;42.660;23.262;2023-05-16T05:38:37;93524.59;;;15.78;100.00
9462;BME280;4769;42.660;23.262;2023-05-16T05:41:02;93515.03;;;15.77;100.00
9462;BME280;4769;42.660;23.262;2023-05-16T05:43:28;93520.50;;;15.86;100.00
9462;BME280;4769;42.660;23.262;2023-05-16T05:45:54;93519.28;;;15.97;100.00
9462;BME280;4769;42.660;23.262;2023-05-16T05:48:20;93522.47;;;15.99;100.00
9462;BME280;4769;42.660;23.262;2023-05-16T05:50:46;93517.56;;;16.06;100.00
9462;BME280;4769;42.660;23.262;2023-05-16T05:53:12;93516.00;;;16.42;100.00
9462;BME280;4769;42.660;23.262;2023-05-16T05:55:40;93508.84;;;16.56;100.00
9462;BME280;4769;42.660;23.262;2023-05-16T05:58:06;93519.66;;;16.46;100.00
9462;BME280;4769;42.660;23.262;2023-05-16T06:00:32;93523.16;;;16.41;100.00
9462;BME280;4769;42.660;23.262;2023-05-16T06:02:58;93524.03;;;16.37;100.00
9462;BME280;4769;42.660;23.262;2023-05-16T06:05:24;93527.56;;;16.14;100.00
9462;BME280;4769;42.660;23.262;2023-05-16T06:07:49;93526.47;;;15.96;100.00
9462;BME280;4769;42.660;23.262;2023-05-16T06:10:15;93526.13;;;16.03;100.00
9462;BME280;4769;42.660;23.262;2023-05-16T06:12:43;93529.09;;;15.59;100.00
9462;BME280;4769;42.660;23.262;2023-05-16T06:15:10;93532.97;;;15.67;100.00
9462;BME280;4769;42.660;23.262;2023-05-16T06:17:36;93528.09;;;15.74;100.00
9462;BME280;4769;42.660;23.262;2023-05-16T06:20:01;93522.59;;;15.89;100.00
9462;BME280;4769;42.660;23.262;2023-05-16T06:22:27;93518.66;;;16.05;100.00
9462;BME280;4769;42.660;23.262;2023-05-16T06:24:53;93515.47;;;16.21;100.00
9462;BME280;4769;42.660;23.262;2023-05-16T06:27:18;93508.63;;;16.34;100.00
9462;BME280;4769;42.660;23.262;2023-05-16T06:29:47;93514.94;;;16.38;100.00
9462;BME280;4769;42.660;23.262;2023-05-16T06:32:13;93519.78;;;16.54;100.00
9462;BME280;4769;42.660;23.262;2023-05-16T06:34:38;93510.13;;;16.58;100.00
9462;BME280;4769;42.660;23.262;2023-05-16T06:37:04;93506.28;;;16.64;100.00
9462;BME280;4769;42.660;23.262;2023-05-16T06:39:30;93488.28;;;16.61;100.00
9462;BME280;4769;42.660;23.262;2023-05-16T06:41:56;93481.22;;;16.52;100.00
9462;BME280;4769;42.660;23.262;2023-05-16T06:44:21;93485.00;;;16.64;100.00
9462;BME280;4769;42.660;23.262;2023-05-16T06:46:50;93483.72;;;16.62;100.00
9462;BME280;4769;42.660;23.262;2023-05-16T06:49:16;93485.72;;;16.70;100.00
9462;BME280;4769;42.660;23.262;2023-05-16T06:51:42;93476.16;;;16.82;100.00
9462;BME280;4769;42.660;23.262;2023-05-16T06:54:08;93472.31;;;16.75;100.00
9462;BME280;4769;42.660;23.262;2023-05-16T06:56:33;93465.22;;;16.84;100.00
9462;BME280;4769;42.660;23.262;2023-05-16T06:58:59;93452.09;;;16.60;100.00
9462;BME280;4769;42.660;23.262;2023-05-16T07:01:25;93449.25;;;16.70;100.00
9462;BME280;4769;42.660;23.262;2023-05-16T07:03:53;93467.81;;;16.89;100.00
9462;BME280;4769;42.660;23.262;2023-05-16T07:06:19;93460.72;;;17.11;99.33
9462;BME280;4769;42.660;23.262;2023-05-16T07:08:44;93455.97;;;17.22;99.16
9462;BME280;4769;42.660;23.262;2023-05-16T07:11:10;93440.78;;;17.09;97.82
9462;BME280;4769;42.660;23.262;2023-05-16T07:13:36;93449.28;;;17.24;97.07
9462;BME280;4769;42.660;23.262;2023-05-16T07:16:02;93452.53;;;17.35;96.92
9462;BME280;4769;42.660;23.262;2023-05-16T07:18:28;93453.13;;;17.32;97.59
9462;BME280;4769;42.660;23.262;2023-05-16T07:20:56;93449.41;;;17.46;96.85
9462;BME280;4769;42.660;23.262;2023-05-16T07:23:22;93437.75;;;17.29;95.83
9462;BME280;4769;42.660;23.262;2023-05-16T07:25:48;93444.47;;;17.40;94.92
9462;BME280;4769;42.660;23.262;2023-05-16T07:28:14;93453.63;;;17.47;95.07
9462;BME280;4769;42.660;23.262;2023-05-16T07:30:39;93462.38;;;17.34;95.79
9462;BME280;4769;42.660;23.262;2023-05-16T07:33:05;93473.66;;;17.04;96.70
9462;BME280;4769;42.660;23.262;2023-05-16T07:35:31;93469.69;;;16.88;96.38
9462;BME280;4769;42.660;23.262;2023-05-16T07:37:59;93473.63;;;17.18;96.48
9462;BME280;4769;42.660;23.262;2023-05-16T07:40:25;93484.22;;;17.50;94.14
9462;BME280;4769;42.660;23.262;2023-05-16T07:42:50;93492.03;;;17.73;92.45
9462;BME280;4769;42.660;23.262;2023-05-16T07:45:16;93485.34;;;17.98;90.45
9462;BME280;4769;42.660;23.262;2023-05-16T07:47:42;93477.06;;;18.21;89.64
9462;BME280;4769;42.660;23.262;2023-05-16T07:50:09;93476.63;;;18.41;89.94
9462;BME280;4769;42.660;23.262;2023-05-16T07:52:34;93471.16;;;18.46;88.97
9462;BME280;4769;42.660;23.262;2023-05-16T07:55:03;93472.22;;;18.59;88.91
9462;BME280;4769;42.660;23.262;2023-05-16T07:57:29;93474.00;;;18.72;88.41
9462;BME280;4769;42.660;23.262;2023-05-16T07:59:55;93463.22;;;18.77;88.44
9462;BME280;4769;42.660;23.262;2023-05-16T08:02:22;93455.44;;;18.97;87.47
9462;BME280;4769;42.660;23.262;2023-05-16T08:04:47;93445.44;;;19.11;86.63
9462;BME280;4769;42.660;23.262;2023-05-16T08:07:13;93437.13;;;19.13;85.29
9462;BME280;4769;42.660;23.262;2023-05-16T08:09:39;93446.38;;;19.07;83.17
9462;BME280;4769;42.660;23.262;2023-05-16T08:12:08;93437.94;;;19.22;83.35
9462;BME280;4769;42.660;23.262;2023-05-16T08:14:34;93423.59;;;19.48;82.66
9462;BME280;4769;42.660;23.262;2023-05-16T08:17:00;93415.94;;;19.72;81.98
9462;BME280;4769;42.660;23.262;2023-05-16T08:19:25;93409.66;;;19.77;79.73
9462;BME280;4769;42.660;23.262;2023-05-16T08:21:51;93404.09;;;19.65;79.57
9462;BME280;4769;42.660;23.262;2023-05-16T08:24:17;93404.75;;;19.70;79.67
9462;BME280;4769;42.660;23.262;2023-05-16T08:26:43;93408.41;;;19.91;78.36
9462;BME280;4769;42.660;23.262;2023-05-16T08:29:11;93412.19;;;19.99;77.52
9462;BME280;4769;42.660;23.262;2023-05-16T08:31:37;93407.59;;;19.65;78.98
9462;BME280;4769;42.660;23.262;2023-05-16T08:34:02;93405.88;;;19.86;79.55
9462;BME280;4769;42.660;23.262;2023-05-16T08:36:28;93395.63;;;19.71;79.98
9462;BME280;4769;42.660;23.262;2023-05-16T08:38:54;93404.63;;;19.92;79.73
9462;BME280;4769;42.660;23.262;2023-05-16T08:41:20;93416.91;;;19.93;79.49
9462;BME280;4769;42.660;23.262;2023-05-16T08:43:45;93410.28;;;20.42;77.47
9462;BME280;4769;42.660;23.262;2023-05-16T08:46:15;93413.25;;;20.57;77.02
9462;BME280;4769;42.660;23.262;2023-05-16T08:48:45;93411.81;;;20.68;75.10
9462;BME280;4769;42.660;23.262;2023-05-16T08:51:11;93429.44;;;20.86;74.94
9462;BME280;4769;42.660;23.262;2023-05-16T08:53:42;93453.41;;;20.83;74.35
9462;BME280;4769;42.660;23.262;2023-05-16T08:56:09;93449.25;;;21.11;73.72
9462;BME280;4769;42.660;23.262;2023-05-16T08:58:35;93451.75;;;21.16;74.71
9462;BME280;4769;42.660;23.262;2023-05-16T09:01:03;93448.09;;;21.58;71.43
9462;BME280;4769;42.660;23.262;2023-05-16T09:03:32;93453.03;;;21.85;70.13
9462;BME280;4769;42.660;23.262;2023-05-16T09:05:57;93443.34;;;21.92;67.93
9462;BME280;4769;42.660;23.262;2023-05-16T09:08:23;93439.81;;;20.96;68.00
9462;BME280;4769;42.660;23.262;2023-05-16T09:10:49;93442.38;;;20.84;69.66
9462;BME280;4769;42.660;23.262;2023-05-16T09:13:15;93435.06;;;21.48;68.59
9462;BME280;4769;42.660;23.262;2023-05-16T09:15:41;93443.53;;;21.58;68.57
9462;BME280;4769;42.660;23.262;2023-05-16T09:18:11;93439.41;;;21.61;68.59
9462;BME280;4769;42.660;23.262;2023-05-16T09:20:45;93443.44;;;21.75;68.59
9462;BME280;4769;42.660;23.262;2023-05-16T09:23:12;93446.03;;;21.63;69.60
9462;BME280;4769;42.660;23.262;2023-05-16T09:25:39;93448.03;;;21.95;68.34
9462;BME280;4769;42.660;23.262;2023-05-16T09:28:04;93448.41;;;22.14;67.91
9462;BME280;4769;42.660;23.262;2023-05-16T09:30:35;93436.28;;;22.08;68.86
9462;BME280;4769;42.660;23.262;2023-05-16T09:33:01;93445.56;;;21.90;70.01
9462;BME280;4769;42.660;23.262;2023-05-16T09:35:27;93427.50;;;21.99;69.79
9462;BME280;4769;42.660;23.262;2023-05-16T09:37:55;93416.75;;;21.99;70.25
9462;BME280;4769;42.660;23.262;2023-05-16T09:40:21;93426.94;;;22.14;70.00
9462;BME280;4769;42.660;23.262;2023-05-16T09:43:00;93425.75;;;22.03;70.01
9462;BME280;4769;42.660;23.262;2023-05-16T09:45:26;93411.22;;;21.84;70.18
9462;BME280;4769;42.660;23.262;2023-05-16T09:47:51;93422.84;;;22.08;69.69
9462;BME280;4769;42.660;23.262;2023-05-16T09:50:17;93425.50;;;22.17;70.55
9462;BME280;4769;42.660;23.262;2023-05-16T09:52:43;93428.31;;;22.20;70.20
9462;BME280;4769;42.660;23.262;2023-05-16T09:55:11;93428.13;;;22.37;69.74
9462;BME280;4769;42.660;23.262;2023-05-16T09:57:38;93411.47;;;22.52;69.27
9462;BME280;4769;42.660;23.262;2023-05-16T10:00:05;93420.25;;;22.73;68.85
9462;BME280;4769;42.660;23.262;2023-05-16T10:02:32;93411.63;;;22.68;66.33
9462;BME280;4769;42.660;23.262;2023-05-16T10:04:58;93417.75;;;22.56;65.59
9462;BME280;4769;42.660;23.262;2023-05-16T10:07:23;93427.25;;;22.54;64.35
9462;BME280;4769;42.660;23.262;2023-05-16T10:09:50;93424.25;;;22.14;65.91
9462;BME280;4769;42.660;23.262;2023-05-16T10:12:23;93421.59;;;22.06;67.14
9462;BME280;4769;42.660;23.262;2023-05-16T10:14:53;93425.41;;;22.25;68.00
9462;BME280;4769;42.660;23.262;2023-05-16T10:17:19;93437.19;;;22.33;68.73
9462;BME280;4769;42.660;23.262;2023-05-16T10:19:46;93439.63;;;22.05;68.88
9462;BME280;4769;42.660;23.262;2023-05-16T10:22:12;93444.13;;;21.72;70.57
9462;BME280;4769;42.660;23.262;2023-05-16T10:24:43;93435.50;;;21.50;70.85
9462;BME280;4769;42.660;23.262;2023-05-16T10:27:14;93428.81;;;21.35;71.65
9462;BME280;4769;42.660;23.262;2023-05-16T10:29:43;93423.25;;;21.03;72.59
9462;BME280;4769;42.660;23.262;2023-05-16T10:32:09;93423.19;;;21.20;72.70
9462;BME280;4769;42.660;23.262;2023-05-16T10:34:36;93419.72;;;21.48;72.71
9462;BME280;4769;42.660;23.262;2023-05-16T10:37:03;93408.66;;;21.58;71.51
9462;BME280;4769;42.660;23.262;2023-05-16T10:39:30;93404.00;;;21.67;71.23
9462;BME280;4769;42.660;23.262;2023-05-16T10:41:57;93402.88;;;21.48;71.84
9462;BME280;4769;42.660;23.262;2023-05-16T10:44:23;93392.38;;;21.63;71.46
9462;BME280;4769;42.660;23.262;2023-05-16T10:46:51;93390.81;;;21.83;71.00
9462;BME280;4769;42.660;23.262;2023-05-16T10:49:21;93389.19;;;21.90;69.23
9462;BME280;4769;42.660;23.262;2023-05-16T10:52:01;93377.38;;;21.91;70.43
9462;BME280;4769;42.660;23.262;2023-05-16T10:54:36;93378.00;;;21.88;70.60
9462;BME280;4769;42.660;23.262;2023-05-16T10:57:07;93378.81;;;21.31;72.38
9462;BME280;4769;42.660;23.262;2023-05-16T10:59:41;93398.00;;;21.41;72.42
9462;BME280;4769;42.660;23.262;2023-05-16T11:02:24;93401.25;;;21.26;73.09
9462;BME280;4769;42.660;23.262;2023-05-16T11:04:51;93400.63;;;21.21;73.08
9462;BME280;4769;42.660;23.262;2023-05-16T11:07:18;93409.81;;;21.11;73.96
9462;BME280;4769;42.660;23.262;2023-05-16T11:09:44;93411.34;;;21.21;73.81
9462;BME280;4769;42.660;23.262;2023-05-16T11:12:10;93427.72;;;21.28;73.46
9462;BME280;4769;42.660;23.262;2023-05-16T11:14:38;93431.94;;;21.37;73.52
9462;BME280;4769;42.660;23.262;2023-05-16T11:17:09;93439.72;;;21.59;73.08
9462;BME280;4769;42.660;23.262;2023-05-16T11:19:42;93445.00;;;21.76;72.40
9462;BME280;4769;42.660;23.262;2023-05-16T11:22:22;93432.53;;;22.01;70.14
9462;BME280;4769;42.660;23.262;2023-05-16T11:24:50;93436.44;;;22.12;70.28
9462;BME280;4769;42.660;23.262;2023-05-16T11:27:20;93433.41;;;22.13;71.11
9462;BME280;4769;42.660;23.262;2023-05-16T11:29:46;93416.72;;;22.08;71.26
9462;BME280;4769;42.660;23.262;2023-05-16T11:32:12;93414.34;;;22.06;70.60
9462;BME280;4769;42.660;23.262;2023-05-16T11:34:42;93415.78;;;22.04;70.91
9462;BME280;4769;42.660;23.262;2023-05-16T11:37:09;93407.06;;;22.07;70.34
9462;BME280;4769;42.660;23.262;2023-05-16T11:39:35;93419.19;;;22.13;70.46
9462;BME280;4769;42.660;23.262;2023-05-16T11:42:01;93419.56;;;22.23;70.30
9462;BME280;4769;42.660;23.262;2023-05-16T11:44:26;93419.75;;;22.39;70.37
9462;BME280;4769;42.660;23.262;2023-05-16T11:46:52;93416.50;;;22.33;69.99
9462;BME280;4769;42.660;23.262;2023-05-16T11:49:18;93421.28;;;22.28;69.01
9462;BME280;4769;42.660;23.262;2023-05-16T11:51:46;93422.88;;;22.49;74.74
9462;BME280;4769;42.660;23.262;2023-05-16T11:54:12;93424.59;;;22.66;71.40
9462;BME280;4769;42.660;23.262;2023-05-16T11:56:39;93428.69;;;22.84;67.63
9462;BME280;4769;42.660;23.262;2023-05-16T11:59:05;93418.28;;;22.82;67.66
9462;BME280;4769;42.660;23.262;2023-05-16T12:01:32;93403.56;;;23.12;66.77
9462;BME280;4769;42.660;23.262;2023-05-16T12:03:58;93388.31;;;23.76;65.94
9462;BME280;4769;42.660;23.262;2023-05-16T12:06:23;93375.47;;;24.10;64.40
9462;BME280;4769;42.660;23.262;2023-05-16T12:08:52;93377.47;;;24.25;63.14
9462;BME280;4769;42.660;23.262;2023-05-16T12:11:18;93361.34;;;24.13;62.92
9462;BME280;4769;42.660;23.262;2023-05-16T12:13:44;93371.88;;;24.18;63.93
9462;BME280;4769;42.660;23.262;2023-05-16T12:16:10;93378.97;;;24.38;62.15
9462;BME280;4769;42.660;23.262;2023-05-16T12:18:37;93373.19;;;24.63;63.39
9462;BME280;4769;42.660;23.262;2023-05-16T12:21:03;93376.91;;;25.02;60.99
9462;BME280;4769;42.660;23.262;2023-05-16T12:23:29;93361.16;;;25.04;60.45
9462;BME280;4769;42.660;23.262;2023-05-16T12:26:01;93372.63;;;25.01;59.95
9462;BME280;4769;42.660;23.262;2023-05-16T12:28:31;93365.06;;;24.91;60.58
9462;BME280;4769;42.660;23.262;2023-05-16T12:30:57;93366.75;;;24.40;60.49
9462;BME280;4769;42.660;23.262;2023-05-16T12:33:22;93377.81;;;23.59;63.20
9462;BME280;4769;42.660;23.262;2023-05-16T12:35:48;93368.16;;;23.34;64.86
9462;BME280;4769;42.660;23.262;2023-05-16T12:38:14;93365.88;;;23.00;66.65
9462;BME280;4769;42.660;23.262;2023-05-16T12:40:41;93379.28;;;22.88;67.57
9462;BME280;4769;42.660;23.262;2023-05-16T12:43:15;93384.41;;;22.69;67.98
9462;BME280;4769;42.660;23.262;2023-05-16T12:45:41;93381.94;;;22.44;69.99
9462;BME280;4769;42.660;23.262;2023-05-16T12:48:11;93383.56;;;22.24;71.92
9462;BME280;4769;42.660;23.262;2023-05-16T12:50:37;93389.19;;;21.90;72.31
9462;BME280;4769;42.660;23.262;2023-05-16T12:53:03;93401.56;;;21.54;76.40
9462;BME280;4769;42.660;23.262;2023-05-16T12:55:29;93404.81;;;21.39;76.35
9462;BME280;4769;42.660;23.262;2023-05-16T12:57:55;93392.53;;;21.29;76.96
9462;BME280;4769;42.660;23.262;2023-05-16T13:00:23;93402.63;;;20.95;78.66
9462;BME280;4769;42.660;23.262;2023-05-16T13:02:49;93402.72;;;20.44;81.74